sensor_id;sensor_type;location;lat;lon;timestamp;P1;durP1;ratioP1;P2;durP2;ratioP2
5754;SDS011;2902;42.130;24.732;2024-02-23T00:01:32;19.87;;;16.57;;
5754;SDS011;2902;42.130;24.732;2024-02-23T00:03:59;25.07;;;17.80;;
5754;SDS011;2902;42.130;24.732;2024-02-23T00:06:27;22.53;;;17.23;;
5754;SDS011;2902;42.130;24.732;2024-02-23T00:08:54;20.87;;;17.77;;
5754;SDS011;2902;42.130;24.732;2024-02-23T00:11:23;28.77;;;18.60;;
5754;SDS011;2902;42.130;24.732;2024-02-23T00:13:50;33.07;;;20.63;;
5754;SDS011;2902;42.130;24.732;2024-02-23T00:16:16;32.63;;;20.27;;
5754;SDS011;2902;42.130;24.732;2024-02-23T00:18:43;29.07;;;20.53;;
5754;SDS011;2902;42.130;24.732;2024-02-23T00:21:10;31.33;;;20.10;;
5754;SDS011;2902;42.130;24.732;2024-02-23T00:23:36;29.67;;;20.50;;
5754;SDS011;2902;42.130;24.732;2024-02-23T00:26:03;31.67;;;20.83;;
5754;SDS011;2902;42.130;24.732;2024-02-23T00:28:31;32.47;;;21.40;;
5754;SDS011;2902;42.130;24.732;2024-02-23T00:30:58;31.80;;;21.33;;
5754;SDS011;2902;42.130;24.732;2024-02-23T00:33:25;29.40;;;19.87;;
5754;SDS011;2902;42.130;24.732;2024-02-23T00:35:51;37.33;;;20.80;;
5754;SDS011;2902;42.130;24.732;2024-02-23T00:38:18;29.80;;;20.87;;
5754;SDS011;2902;42.130;24.732;2024-02-23T00:40:45;30.00;;;21.07;;
5754;SDS011;2902;42.130;24.732;2024-02-23T00:43:11;36.47;;;21.60;;
5754;SDS011;2902;42.130;24.732;2024-02-23T00:45:39;33.53;;;20.50;;
5754;SDS011;2902;42.130;24.732;2024-02-23T00:48:06;35.10;;;21.23;;
5754;SDS011;2902;42.130;24.732;2024-02-23T00:50:33;29.90;;;19.40;;
5754;SDS011;2902;42.130;24.732;2024-02-23T00:53:00;27.90;;;18.00;;
5754;SDS011;2902;42.130;24.732;2024-02-23T00:55:27;25.77;;;16.37;;
5754;SDS011;2902;42.130;24.732;2024-02-23T00:57:53;39.47;;;24.60;;
5754;SDS011;2902;42.130;24.732;2024-02-23T01:00:20;30.40;;;20.67;;
5754;SDS011;2902;42.130;24.732;2024-02-23T01:02:48;49.57;;;35.50;;
5754;SDS011;2902;42.130;24.732;2024-02-23T01:05:15;38.17;;;27.47;;
5754;SDS011;2902;42.130;24.732;2024-02-23T01:07:42;30.50;;;22.53;;
5754;SDS011;2902;42.130;24.732;2024-02-23T01:10:08;30.17;;;19.63;;
5754;SDS011;2902;42.130;24.732;2024-02-23T01:12:35;24.30;;;18.10;;
5754;SDS011;2902;42.130;24.732;2024-02-23T01:15:02;27.27;;;18.10;;
5754;SDS011;2902;42.130;24.732;2024-02-23T01:17:29;31.30;;;18.03;;
5754;SDS011;2902;42.130;24.732;2024-02-23T01:19:57;24.13;;;18.53;;
5754;SDS011;2902;42.130;24.732;2024-02-23T01:22:25;30.40;;;19.63;;
5754;SDS011;2902;42.130;24.732;2024-02-23T01:24:51;30.77;;;22.13;;
5754;SDS011;2902;42.130;24.732;2024-02-23T01:27:18;35.03;;;22.10;;
5754;SDS011;2902;42.130;24.732;2024-02-23T01:29:45;28.47;;;20.53;;
5754;SDS011;2902;42.130;24.732;2024-02-23T01:32:11;26.77;;;18.47;;
5754;SDS011;2902;42.130;24.732;2024-02-23T01:34:38;30.30;;;19.17;;
5754;SDS011;2902;42.130;24.732;2024-02-23T01:37:06;27.73;;;19.10;;
5754;SDS011;2902;42.130;24.732;2024-02-23T01:39:34;28.93;;;20.17;;
5754;SDS011;2902;42.130;24.732;2024-02-23T01:42:00;30.33;;;19.27;;
5754;SDS011;2902;42.130;24.732;2024-02-23T01:44:27;29.50;;;20.30;;
5754;SDS011;2902;42.130;24.732;2024-02-23T01:46:54;32.23;;;23.87;;
5754;SDS011;2902;42.130;24.732;2024-02-23T01:49:20;36.80;;;24.53;;
5754;SDS011;2902;42.130;24.732;2024-02-23T01:51:54;29.60;;;22.07;;
5754;SDS011;2902;42.130;24.732;2024-02-23T01:54:23;33.37;;;21.97;;
5754;SDS011;2902;42.130;24.732;2024-02-23T01:56:50;35.17;;;21.77;;
5754;SDS011;2902;42.130;24.732;2024-02-23T01:59:17;36.33;;;22.67;;
5754;SDS011;2902;42.130;24.732;2024-02-23T02:01:45;58.77;;;28.30;;
5754;SDS011;2902;42.130;24.732;2024-02-23T02:04:11;58.70;;;30.97;;
5754;SDS011;2902;42.130;24.732;2024-02-23T02:06:38;137.23;;;56.53;;
5754;SDS011;2902;42.130;24.732;2024-02-23T02:09:05;46.80;;;27.90;;
5754;SDS011;2902;42.130;24.732;2024-02-23T02:11:34;43.47;;;27.57;;
5754;SDS011;2902;42.130;24.732;2024-02-23T02:14:00;35.23;;;21.47;;
5754;SDS011;2902;42.130;24.732;2024-02-23T02:16:27;37.60;;;21.10;;
5754;SDS011;2902;42.130;24.732;2024-02-23T02:18:54;29.53;;;19.23;;
5754;SDS011;2902;42.130;24.732;2024-02-23T02:21:21;28.23;;;18.37;;
5754;SDS011;2902;42.130;24.732;2024-02-23T02:23:50;22.13;;;17.07;;
5754;SDS011;2902;42.130;24.732;2024-02-23T02:26:16;26.60;;;19.33;;
5754;SDS011;2902;42.130;24.732;2024-02-23T02:28:45;24.10;;;17.83;;
5754;SDS011;2902;42.130;24.732;2024-02-23T02:31:12;26.93;;;18.37;;
5754;SDS011;2902;42.130;24.732;2024-02-23T02:33:39;28.80;;;19.70;;
5754;SDS011;2902;42.130;24.732;2024-02-23T02:36:06;27.83;;;19.97;;
5754;SDS011;2902;42.130;24.732;2024-02-23T02:38:33;32.03;;;19.43;;
5754;SDS011;2902;42.130;24.732;2024-02-23T02:41:00;27.03;;;18.97;;
5754;SDS011;2902;42.130;24.732;2024-02-23T02:43:27;23.33;;;17.03;;
5754;SDS011;2902;42.130;24.732;2024-02-23T02:45:55;26.90;;;20.13;;
5754;SDS011;2902;42.130;24.732;2024-02-23T02:48:22;24.37;;;18.40;;
5754;SDS011;2902;42.130;24.732;2024-02-23T02:50:48;25.10;;;17.37;;
5754;SDS011;2902;42.130;24.732;2024-02-23T02:53:16;27.83;;;19.00;;
5754;SDS011;2902;42.130;24.732;2024-02-23T02:55:43;25.80;;;18.20;;
5754;SDS011;2902;42.130;24.732;2024-02-23T02:58:10;27.30;;;18.43;;
5754;SDS011;2902;42.130;24.732;2024-02-23T03:00:37;28.83;;;18.87;;
5754;SDS011;2902;42.130;24.732;2024-02-23T03:03:06;23.03;;;16.63;;
5754;SDS011;2902;42.130;24.732;2024-02-23T03:05:32;21.47;;;17.50;;
5754;SDS011;2902;42.130;24.732;2024-02-23T03:07:59;23.97;;;17.60;;
5754;SDS011;2902;42.130;24.732;2024-02-23T03:10:26;24.67;;;18.10;;
5754;SDS011;2902;42.130;24.732;2024-02-23T03:12:52;29.77;;;18.53;;
5754;SDS011;2902;42.130;24.732;2024-02-23T03:15:19;28.97;;;18.80;;
5754;SDS011;2902;42.130;24.732;2024-02-23T03:17:46;37.53;;;21.20;;
5754;SDS011;2902;42.130;24.732;2024-02-23T03:20:15;29.50;;;18.87;;
5754;SDS011;2902;42.130;24.732;2024-02-23T03:22:42;29.60;;;19.60;;
5754;SDS011;2902;42.130;24.732;2024-02-23T03:25:08;32.03;;;20.07;;
5754;SDS011;2902;42.130;24.732;2024-02-23T03:27:36;43.87;;;23.80;;
5754;SDS011;2902;42.130;24.732;2024-02-23T03:30:03;57.40;;;29.70;;
5754;SDS011;2902;42.130;24.732;2024-02-23T03:32:33;31.27;;;19.27;;
5754;SDS011;2902;42.130;24.732;2024-02-23T03:35:01;30.23;;;18.33;;
5754;SDS011;2902;42.130;24.732;2024-02-23T03:37:30;25.33;;;18.50;;
5754;SDS011;2902;42.130;24.732;2024-02-23T03:39:57;26.50;;;18.93;;
5754;SDS011;2902;42.130;24.732;2024-02-23T03:42:24;24.60;;;18.53;;
5754;SDS011;2902;42.130;24.732;2024-02-23T03:44:51;29.30;;;19.67;;
5754;SDS011;2902;42.130;24.732;2024-02-23T03:47:18;29.57;;;18.67;;
5754;SDS011;2902;42.130;24.732;2024-02-23T03:49:45;32.27;;;18.60;;
5754;SDS011;2902;42.130;24.732;2024-02-23T03:52:11;24.80;;;18.63;;
5754;SDS011;2902;42.130;24.732;2024-02-23T03:54:41;28.43;;;18.70;;
5754;SDS011;2902;42.130;24.732;2024-02-23T03:57:07;32.70;;;17.70;;
5754;SDS011;2902;42.130;24.732;2024-02-23T03:59:35;30.40;;;17.40;;
5754;SDS011;2902;42.130;24.732;2024-02-23T04:02:02;30.03;;;18.37;;
5754;SDS011;2902;42.130;24.732;2024-02-23T04:04:29;24.50;;;19.47;;
5754;SDS011;2902;42.130;24.732;2024-02-23T04:06:56;29.30;;;19.23;;
5754;SDS011;2902;42.130;24.732;2024-02-23T04:09:23;30.83;;;19.43;;
5754;SDS011;2902;42.130;24.732;2024-02-23T04:11:51;27.90;;;19.27;;
5754;SDS011;2902;42.130;24.732;2024-02-23T04:14:18;29.17;;;18.83;;
5754;SDS011;2902;42.130;24.732;2024-02-23T04:16:44;25.10;;;17.17;;
5754;SDS011;2902;42.130;24.732;2024-02-23T04:19:11;27.60;;;20.13;;
5754;SDS011;2902;42.130;24.732;2024-02-23T04:21:38;25.23;;;18.73;;
5754;SDS011;2902;42.130;24.732;2024-02-23T04:24:04;28.73;;;19.00;;
5754;SDS011;2902;42.130;24.732;2024-02-23T04:26:32;31.13;;;20.60;;
5754;SDS011;2902;42.130;24.732;2024-02-23T04:29:00;63.53;;;37.53;;
5754;SDS011;2902;42.130;24.732;2024-02-23T04:31:27;47.30;;;33.43;;
5754;SDS011;2902;42.130;24.732;2024-02-23T04:33:53;41.47;;;25.90;;
5754;SDS011;2902;42.130;24.732;2024-02-23T04:36:20;33.20;;;24.30;;
5754;SDS011;2902;42.130;24.732;2024-02-23T04:38:47;34.73;;;23.60;;
5754;SDS011;2902;42.130;24.732;2024-02-23T04:41:14;37.03;;;24.10;;
5754;SDS011;2902;42.130;24.732;2024-02-23T04:43:40;37.57;;;24.83;;
5754;SDS011;2902;42.130;24.732;2024-02-23T04:46:08;36.53;;;23.53;;
5754;SDS011;2902;42.130;24.732;2024-02-23T04:48:35;33.10;;;23.57;;
5754;SDS011;2902;42.130;24.732;2024-02-23T04:51:02;38.90;;;25.07;;
5754;SDS011;2902;42.130;24.732;2024-02-23T04:53:29;36.53;;;22.27;;
5754;SDS011;2902;42.130;24.732;2024-02-23T04:55:56;43.00;;;24.00;;
5754;SDS011;2902;42.130;24.732;2024-02-23T04:58:23;36.80;;;22.90;;
5754;SDS011;2902;42.130;24.732;2024-02-23T05:00:49;40.07;;;23.53;;
5754;SDS011;2902;42.130;24.732;2024-02-23T05:03:17;39.53;;;23.93;;
5754;SDS011;2902;42.130;24.732;2024-02-23T05:05:44;40.53;;;24.17;;
5754;SDS011;2902;42.130;24.732;2024-02-23T05:08:11;43.53;;;27.03;;
5754;SDS011;2902;42.130;24.732;2024-02-23T05:10:38;44.00;;;28.73;;
5754;SDS011;2902;42.130;24.732;2024-02-23T05:13:04;46.17;;;30.00;;
5754;SDS011;2902;42.130;24.732;2024-02-23T05:15:31;45.40;;;25.77;;
5754;SDS011;2902;42.130;24.732;2024-02-23T05:17:58;55.90;;;25.80;;
5754;SDS011;2902;42.130;24.732;2024-02-23T05:20:26;43.17;;;25.57;;
5754;SDS011;2902;42.130;24.732;2024-02-23T05:22:52;45.00;;;26.47;;
5754;SDS011;2902;42.130;24.732;2024-02-23T05:25:19;49.43;;;28.60;;
5754;SDS011;2902;42.130;24.732;2024-02-23T05:27:46;41.40;;;26.53;;
5754;SDS011;2902;42.130;24.732;2024-02-23T05:30:13;48.53;;;28.90;;
5754;SDS011;2902;42.130;24.732;2024-02-23T05:32:39;47.83;;;26.23;;
5754;SDS011;2902;42.130;24.732;2024-02-23T05:35:06;46.17;;;28.77;;
5754;SDS011;2902;42.130;24.732;2024-02-23T05:37:34;51.57;;;27.20;;
5754;SDS011;2902;42.130;24.732;2024-02-23T05:40:02;47.13;;;27.40;;
5754;SDS011;2902;42.130;24.732;2024-02-23T05:42:35;51.60;;;27.20;;
5754;SDS011;2902;42.130;24.732;2024-02-23T05:45:02;47.93;;;26.17;;
5754;SDS011;2902;42.130;24.732;2024-02-23T05:47:29;48.83;;;25.97;;
5754;SDS011;2902;42.130;24.732;2024-02-23T05:49:56;49.57;;;28.03;;
5754;SDS011;2902;42.130;24.732;2024-02-23T05:52:23;48.00;;;27.40;;
5754;SDS011;2902;42.130;24.732;2024-02-23T05:54:51;60.87;;;32.10;;
5754;SDS011;2902;42.130;24.732;2024-02-23T05:57:21;70.07;;;34.83;;
5754;SDS011;2902;42.130;24.732;2024-02-23T05:59:47;62.70;;;36.83;;
5754;SDS011;2902;42.130;24.732;2024-02-23T06:02:14;50.43;;;29.10;;
5754;SDS011;2902;42.130;24.732;2024-02-23T06:04:41;63.80;;;33.17;;
5754;SDS011;2902;42.130;24.732;2024-02-23T06:07:08;54.10;;;29.27;;
5754;SDS011;2902;42.130;24.732;2024-02-23T06:09:35;40.83;;;24.97;;
5754;SDS011;2902;42.130;24.732;2024-02-23T06:12:03;33.97;;;20.67;;
5754;SDS011;2902;42.130;24.732;2024-02-23T06:14:30;37.20;;;21.90;;
5754;SDS011;2902;42.130;24.732;2024-02-23T06:16:57;32.93;;;20.80;;
5754;SDS011;2902;42.130;24.732;2024-02-23T06:19:24;27.77;;;18.67;;
5754;SDS011;2902;42.130;24.732;2024-02-23T06:21:50;28.87;;;19.30;;
5754;SDS011;2902;42.130;24.732;2024-02-23T06:24:17;28.27;;;18.87;;
5754;SDS011;2902;42.130;24.732;2024-02-23T06:26:44;27.33;;;17.67;;
5754;SDS011;2902;42.130;24.732;2024-02-23T06:29:15;44.40;;;27.67;;
5754;SDS011;2902;42.130;24.732;2024-02-23T06:31:42;27.07;;;17.40;;
5754;SDS011;2902;42.130;24.732;2024-02-23T06:34:14;34.90;;;17.03;;
5754;SDS011;2902;42.130;24.732;2024-02-23T06:36:40;26.57;;;18.47;;
5754;SDS011;2902;42.130;24.732;2024-02-23T06:39:07;33.60;;;18.43;;
5754;SDS011;2902;42.130;24.732;2024-02-23T06:41:34;29.00;;;18.60;;
5754;SDS011;2902;42.130;24.732;2024-02-23T06:44:01;29.43;;;17.83;;
5754;SDS011;2902;42.130;24.732;2024-02-23T06:46:29;25.60;;;17.97;;
5754;SDS011;2902;42.130;24.732;2024-02-23T06:48:56;24.30;;;17.53;;
5754;SDS011;2902;42.130;24.732;2024-02-23T06:51:22;27.47;;;17.83;;
5754;SDS011;2902;42.130;24.732;2024-02-23T06:53:49;25.37;;;18.43;;
5754;SDS011;2902;42.130;24.732;2024-02-23T06:56:16;28.63;;;18.37;;
5754;SDS011;2902;42.130;24.732;2024-02-23T06:58:42;24.03;;;17.50;;
5754;SDS011;2902;42.130;24.732;2024-02-23T07:01:09;23.67;;;17.30;;
5754;SDS011;2902;42.130;24.732;2024-02-23T07:03:39;28.03;;;17.50;;
5754;SDS011;2902;42.130;24.732;2024-02-23T07:06:07;25.87;;;16.77;;
5754;SDS011;2902;42.130;24.732;2024-02-23T07:08:35;20.80;;;16.97;;
5754;SDS011;2902;42.130;24.732;2024-02-23T07:11:02;29.87;;;17.33;;
5754;SDS011;2902;42.130;24.732;2024-02-23T07:13:29;29.77;;;16.33;;
5754;SDS011;2902;42.130;24.732;2024-02-23T07:15:55;31.03;;;16.23;;
5754;SDS011;2902;42.130;24.732;2024-02-23T07:18:23;22.67;;;16.93;;
5754;SDS011;2902;42.130;24.732;2024-02-23T07:20:51;23.20;;;16.50;;
5754;SDS011;2902;42.130;24.732;2024-02-23T07:23:18;20.03;;;17.30;;
5754;SDS011;2902;42.130;24.732;2024-02-23T07:25:45;20.37;;;14.83;;
5754;SDS011;2902;42.130;24.732;2024-02-23T07:28:13;19.30;;;16.67;;
5754;SDS011;2902;42.130;24.732;2024-02-23T07:30:43;35.03;;;17.57;;
5754;SDS011;2902;42.130;24.732;2024-02-23T07:33:10;29.47;;;17.93;;
5754;SDS011;2902;42.130;24.732;2024-02-23T07:35:36;25.83;;;16.67;;
5754;SDS011;2902;42.130;24.732;2024-02-23T07:38:05;20.07;;;15.73;;
5754;SDS011;2902;42.130;24.732;2024-02-23T07:40:31;27.00;;;18.07;;
5754;SDS011;2902;42.130;24.732;2024-02-23T07:42:58;26.20;;;16.67;;
5754;SDS011;2902;42.130;24.732;2024-02-23T07:45:25;24.07;;;15.10;;
5754;SDS011;2902;42.130;24.732;2024-02-23T07:47:51;27.63;;;15.87;;
5754;SDS011;2902;42.130;24.732;2024-02-23T07:50:18;20.60;;;15.20;;
5754;SDS011;2902;42.130;24.732;2024-02-23T07:52:45;21.23;;;16.50;;
5754;SDS011;2902;42.130;24.732;2024-02-23T07:55:13;21.83;;;15.23;;
5754;SDS011;2902;42.130;24.732;2024-02-23T07:57:40;26.20;;;16.23;;
5754;SDS011;2902;42.130;24.732;2024-02-23T08:00:07;16.60;;;14.20;;
5754;SDS011;2902;42.130;24.732;2024-02-23T08:02:35;20.17;;;14.97;;
5754;SDS011;2902;42.130;24.732;2024-02-23T08:05:02;16.50;;;14.10;;
5754;SDS011;2902;42.130;24.732;2024-02-23T08:07:29;25.13;;;15.03;;
5754;SDS011;2902;42.130;24.732;2024-02-23T08:09:55;19.37;;;13.33;;
5754;SDS011;2902;42.130;24.732;2024-02-23T08:12:24;23.80;;;13.10;;
5754;SDS011;2902;42.130;24.732;2024-02-23T08:14:51;17.67;;;12.70;;
5754;SDS011;2902;42.130;24.732;2024-02-23T08:17:18;20.63;;;12.83;;
5754;SDS011;2902;42.130;24.732;2024-02-23T08:19:45;18.00;;;13.53;;
5754;SDS011;2902;42.130;24.732;2024-02-23T08:22:12;14.73;;;12.77;;
5754;SDS011;2902;42.130;24.732;2024-02-23T08:24:39;31.30;;;12.90;;
5754;SDS011;2902;42.130;24.732;2024-02-23T08:27:06;21.77;;;12.43;;
5754;SDS011;2902;42.130;24.732;2024-02-23T08:29:37;17.77;;;12.77;;
5754;SDS011;2902;42.130;24.732;2024-02-23T08:32:04;19.07;;;12.80;;
5754;SDS011;2902;42.130;24.732;2024-02-23T08:34:31;15.80;;;13.47;;
5754;SDS011;2902;42.130;24.732;2024-02-23T08:36:59;16.03;;;13.23;;
5754;SDS011;2902;42.130;24.732;2024-02-23T08:39:26;18.20;;;12.83;;
5754;SDS011;2902;42.130;24.732;2024-02-23T08:41:54;17.50;;;13.20;;
5754;SDS011;2902;42.130;24.732;2024-02-23T08:44:20;15.13;;;13.77;;
5754;SDS011;2902;42.130;24.732;2024-02-23T08:46:48;23.73;;;13.43;;
5754;SDS011;2902;42.130;24.732;2024-02-23T08:49:15;14.03;;;12.63;;
5754;SDS011;2902;42.130;24.732;2024-02-23T08:51:42;23.80;;;13.87;;
5754;SDS011;2902;42.130;24.732;2024-02-23T08:54:08;15.60;;;13.10;;
5754;SDS011;2902;42.130;24.732;2024-02-23T08:56:36;14.33;;;12.83;;
5754;SDS011;2902;42.130;24.732;2024-02-23T08:59:04;14.97;;;13.47;;
5754;SDS011;2902;42.130;24.732;2024-02-23T09:01:30;13.77;;;12.47;;
5754;SDS011;2902;42.130;24.732;2024-02-23T09:03:58;23.87;;;14.30;;
5754;SDS011;2902;42.130;24.732;2024-02-23T09:06:25;26.33;;;13.60;;
5754;SDS011;2902;42.130;24.732;2024-02-23T09:08:52;23.07;;;13.90;;
5754;SDS011;2902;42.130;24.732;2024-02-23T09:11:18;21.70;;;13.77;;
5754;SDS011;2902;42.130;24.732;2024-02-23T09:13:45;19.70;;;13.37;;
5754;SDS011;2902;42.130;24.732;2024-02-23T09:16:12;17.03;;;13.40;;
5754;SDS011;2902;42.130;24.732;2024-02-23T09:18:39;16.67;;;13.70;;
5754;SDS011;2902;42.130;24.732;2024-02-23T09:21:07;19.77;;;12.80;;
5754;SDS011;2902;42.130;24.732;2024-02-23T09:23:34;14.70;;;13.00;;
5754;SDS011;2902;42.130;24.732;2024-02-23T09:26:01;23.80;;;13.30;;
5754;SDS011;2902;42.130;24.732;2024-02-23T09:28:29;16.37;;;14.07;;
5754;SDS011;2902;42.130;24.732;2024-02-23T09:30:56;15.37;;;13.77;;
5754;SDS011;2902;42.130;24.732;2024-02-23T09:33:23;20.10;;;14.70;;
5754;SDS011;2902;42.130;24.732;2024-02-23T09:35:50;20.10;;;13.77;;
5754;SDS011;2902;42.130;24.732;2024-02-23T09:38:18;16.67;;;13.50;;
5754;SDS011;2902;42.130;24.732;2024-02-23T09:40:45;15.73;;;13.27;;
5754;SDS011;2902;42.130;24.732;2024-02-23T09:43:12;15.03;;;13.53;;
5754;SDS011;2902;42.130;24.732;2024-02-23T09:45:40;14.17;;;12.80;;
5754;SDS011;2902;42.130;24.732;2024-02-23T09:48:07;18.00;;;13.90;;
5754;SDS011;2902;42.130;24.732;2024-02-23T09:50:37;16.83;;;14.40;;
5754;SDS011;2902;42.130;24.732;2024-02-23T09:53:07;15.33;;;13.73;;
5754;SDS011;2902;42.130;24.732;2024-02-23T09:55:38;15.10;;;13.50;;
5754;SDS011;2902;42.130;24.732;2024-02-23T09:58:06;12.33;;;11.07;;
5754;SDS011;2902;42.130;24.732;2024-02-23T10:00:35;15.53;;;13.97;;
5754;SDS011;2902;42.130;24.732;2024-02-23T10:03:04;14.30;;;12.90;;
5754;SDS011;2902;42.130;24.732;2024-02-23T10:05:32;15.73;;;13.60;;
5754;SDS011;2902;42.130;24.732;2024-02-23T10:07:58;15.80;;;13.53;;
5754;SDS011;2902;42.130;24.732;2024-02-23T10:10:29;14.23;;;13.00;;
5754;SDS011;2902;42.130;24.732;2024-02-23T10:12:58;14.53;;;13.03;;
5754;SDS011;2902;42.130;24.732;2024-02-23T10:15:25;14.67;;;13.17;;
5754;SDS011;2902;42.130;24.732;2024-02-23T10:17:51;15.13;;;13.47;;
5754;SDS011;2902;42.130;24.732;2024-02-23T10:20:19;14.80;;;12.87;;
5754;SDS011;2902;42.130;24.732;2024-02-23T10:22:46;13.00;;;11.80;;
5754;SDS011;2902;42.130;24.732;2024-02-23T10:25:13;13.57;;;12.43;;
5754;SDS011;2902;42.130;24.732;2024-02-23T10:27:40;14.37;;;12.97;;
5754;SDS011;2902;42.130;24.732;2024-02-23T10:30:09;15.53;;;13.90;;
5754;SDS011;2902;42.130;24.732;2024-02-23T10:32:38;16.50;;;13.70;;
5754;SDS011;2902;42.130;24.732;2024-02-23T10:35:07;14.53;;;13.03;;
5754;SDS011;2902;42.130;24.732;2024-02-23T10:37:36;14.57;;;12.53;;
5754;SDS011;2902;42.130;24.732;2024-02-23T10:40:04;15.70;;;12.90;;
5754;SDS011;2902;42.130;24.732;2024-02-23T10:42:37;14.00;;;12.60;;
5754;SDS011;2902;42.130;24.732;2024-02-23T10:45:06;13.63;;;12.10;;
5754;SDS011;2902;42.130;24.732;2024-02-23T10:47:34;13.17;;;11.83;;
5754;SDS011;2902;42.130;24.732;2024-02-23T10:50:02;13.20;;;11.87;;
5754;SDS011;2902;42.130;24.732;2024-02-23T10:52:30;13.60;;;12.30;;
5754;SDS011;2902;42.130;24.732;2024-02-23T10:54:58;20.97;;;12.50;;
5754;SDS011;2902;42.130;24.732;2024-02-23T10:57:28;13.27;;;11.90;;
5754;SDS011;2902;42.130;24.732;2024-02-23T10:59:55;15.37;;;11.73;;
5754;SDS011;2902;42.130;24.732;2024-02-23T11:02:21;15.40;;;12.03;;
5754;SDS011;2902;42.130;24.732;2024-02-23T11:04:52;13.70;;;11.70;;
5754;SDS011;2902;42.130;24.732;2024-02-23T11:07:22;14.80;;;11.40;;
5754;SDS011;2902;42.130;24.732;2024-02-23T11:09:51;13.63;;;12.43;;
5754;SDS011;2902;42.130;24.732;2024-02-23T11:12:25;13.43;;;11.87;;
5754;SDS011;2902;42.130;24.732;2024-02-23T11:14:56;9.23;;;8.00;;
5754;SDS011;2902;42.130;24.732;2024-02-23T11:17:26;9.40;;;8.70;;
5754;SDS011;2902;42.130;24.732;2024-02-23T11:19:55;11.90;;;11.00;;
5754;SDS011;2902;42.130;24.732;2024-02-23T11:22:26;11.67;;;10.70;;
5754;SDS011;2902;42.130;24.732;2024-02-23T11:24:59;13.20;;;11.97;;
5754;SDS011;2902;42.130;24.732;2024-02-23T11:27:29;12.70;;;11.60;;
5754;SDS011;2902;42.130;24.732;2024-02-23T11:29:59;13.23;;;12.13;;
5754;SDS011;2902;42.130;24.732;2024-02-23T11:32:35;17.60;;;13.40;;
5754;SDS011;2902;42.130;24.732;2024-02-23T11:35:06;18.50;;;14.10;;
5754;SDS011;2902;42.130;24.732;2024-02-23T11:37:43;14.70;;;12.90;;
5754;SDS011;2902;42.130;24.732;2024-02-23T11:40:12;13.33;;;12.03;;
5754;SDS011;2902;42.130;24.732;2024-02-23T11:42:39;13.93;;;12.50;;
5754;SDS011;2902;42.130;24.732;2024-02-23T11:45:07;14.40;;;13.00;;
5754;SDS011;2902;42.130;24.732;2024-02-23T11:47:34;15.20;;;12.70;;
5754;SDS011;2902;42.130;24.732;2024-02-23T11:50:02;14.67;;;11.93;;
5754;SDS011;2902;42.130;24.732;2024-02-23T11:52:32;12.20;;;11.10;;
5754;SDS011;2902;42.130;24.732;2024-02-23T11:54:59;13.93;;;12.47;;
5754;SDS011;2902;42.130;24.732;2024-02-23T11:57:26;15.13;;;12.13;;
5754;SDS011;2902;42.130;24.732;2024-02-23T11:59:53;13.17;;;11.80;;
5754;SDS011;2902;42.130;24.732;2024-02-23T12:02:20;15.70;;;12.50;;
5754;SDS011;2902;42.130;24.732;2024-02-23T12:04:47;13.90;;;12.20;;
5754;SDS011;2902;42.130;24.732;2024-02-23T12:07:14;13.30;;;11.90;;
5754;SDS011;2902;42.130;24.732;2024-02-23T12:09:43;13.70;;;12.43;;
5754;SDS011;2902;42.130;24.732;2024-02-23T12:12:10;12.70;;;11.50;;
5754;SDS011;2902;42.130;24.732;2024-02-23T12:14:38;12.20;;;11.17;;
5754;SDS011;2902;42.130;24.732;2024-02-23T12:17:07;11.77;;;10.70;;
5754;SDS011;2902;42.130;24.732;2024-02-23T12:19:37;11.60;;;10.57;;
5754;SDS011;2902;42.130;24.732;2024-02-23T12:22:04;12.17;;;10.97;;
5754;SDS011;2902;42.130;24.732;2024-02-23T12:24:30;10.13;;;9.13;;
5754;SDS011;2902;42.130;24.732;2024-02-23T12:26:59;10.97;;;9.07;;
5754;SDS011;2902;42.130;24.732;2024-02-23T12:29:25;13.77;;;10.37;;
5754;SDS011;2902;42.130;24.732;2024-02-23T12:32:02;10.33;;;9.53;;
5754;SDS011;2902;42.130;24.732;2024-02-23T12:34:29;11.07;;;10.23;;
5754;SDS011;2902;42.130;24.732;2024-02-23T12:36:56;10.77;;;9.70;;
5754;SDS011;2902;42.130;24.732;2024-02-23T12:39:22;10.80;;;9.80;;
5754;SDS011;2902;42.130;24.732;2024-02-23T12:41:49;13.33;;;9.77;;
5754;SDS011;2902;42.130;24.732;2024-02-23T12:44:18;9.37;;;8.70;;
5754;SDS011;2902;42.130;24.732;2024-02-23T12:46:44;9.93;;;9.23;;
5754;SDS011;2902;42.130;24.732;2024-02-23T12:49:11;13.03;;;9.50;;
5754;SDS011;2902;42.130;24.732;2024-02-23T12:51:38;9.47;;;8.73;;
5754;SDS011;2902;42.130;24.732;2024-02-23T12:54:05;10.10;;;9.20;;
5754;SDS011;2902;42.130;24.732;2024-02-23T12:56:32;12.67;;;10.40;;
5754;SDS011;2902;42.130;24.732;2024-02-23T12:58:58;10.87;;;9.87;;
5754;SDS011;2902;42.130;24.732;2024-02-23T13:01:26;13.40;;;9.57;;
5754;SDS011;2902;42.130;24.732;2024-02-23T13:03:53;11.30;;;10.23;;
5754;SDS011;2902;42.130;24.732;2024-02-23T13:06:20;10.57;;;9.53;;
5754;SDS011;2902;42.130;24.732;2024-02-23T13:08:47;11.47;;;10.00;;
5754;SDS011;2902;42.130;24.732;2024-02-23T13:11:14;11.97;;;10.83;;
5754;SDS011;2902;42.130;24.732;2024-02-23T13:13:41;11.07;;;9.47;;
5754;SDS011;2902;42.130;24.732;2024-02-23T13:16:07;10.70;;;9.00;;
5754;SDS011;2902;42.130;24.732;2024-02-23T13:18:36;9.90;;;9.10;;
5754;SDS011;2902;42.130;24.732;2024-02-23T13:21:02;11.63;;;10.17;;
5754;SDS011;2902;42.130;24.732;2024-02-23T13:23:29;8.87;;;8.00;;
5754;SDS011;2902;42.130;24.732;2024-02-23T13:25:56;10.70;;;8.37;;
5754;SDS011;2902;42.130;24.732;2024-02-23T13:28:23;10.13;;;9.13;;
5754;SDS011;2902;42.130;24.732;2024-02-23T13:30:50;8.70;;;8.10;;
5754;SDS011;2902;42.130;24.732;2024-02-23T13:33:17;8.50;;;7.90;;
5754;SDS011;2902;42.130;24.732;2024-02-23T13:35:47;8.90;;;8.20;;
5754;SDS011;2902;42.130;24.732;2024-02-23T13:38:13;9.47;;;8.23;;
5754;SDS011;2902;42.130;24.732;2024-02-23T13:40:40;9.70;;;8.90;;
5754;SDS011;2902;42.130;24.732;2024-02-23T13:43:07;9.03;;;8.20;;
5754;SDS011;2902;42.130;24.732;2024-02-23T13:45:47;7.80;;;7.30;;
5754;SDS011;2902;42.130;24.732;2024-02-23T13:48:15;7.10;;;6.60;;
5754;SDS011;2902;42.130;24.732;2024-02-23T13:50:43;6.87;;;6.37;;
5754;SDS011;2902;42.130;24.732;2024-02-23T13:53:12;7.87;;;7.07;;
5754;SDS011;2902;42.130;24.732;2024-02-23T13:55:38;7.43;;;6.70;;
5754;SDS011;2902;42.130;24.732;2024-02-23T13:58:07;8.17;;;7.37;;
5754;SDS011;2902;42.130;24.732;2024-02-23T14:00:33;7.57;;;7.00;;
5754;SDS011;2902;42.130;24.732;2024-02-23T14:03:00;7.33;;;6.63;;
5754;SDS011;2902;42.130;24.732;2024-02-23T14:05:27;7.87;;;6.93;;
5754;SDS011;2902;42.130;24.732;2024-02-23T14:07:53;7.83;;;7.20;;
5754;SDS011;2902;42.130;24.732;2024-02-23T14:10:22;7.97;;;7.33;;
5754;SDS011;2902;42.130;24.732;2024-02-23T14:12:49;9.53;;;7.27;;
5754;SDS011;2902;42.130;24.732;2024-02-23T14:15:16;8.07;;;6.87;;
5754;SDS011;2902;42.130;24.732;2024-02-23T14:17:43;7.73;;;7.23;;
5754;SDS011;2902;42.130;24.732;2024-02-23T14:20:10;7.67;;;7.07;;
5754;SDS011;2902;42.130;24.732;2024-02-23T14:22:37;17.30;;;8.10;;
5754;SDS011;2902;42.130;24.732;2024-02-23T14:25:04;7.83;;;7.20;;
5754;SDS011;2902;42.130;24.732;2024-02-23T14:27:34;8.70;;;7.97;;
5754;SDS011;2902;42.130;24.732;2024-02-23T14:30:00;11.07;;;8.23;;
5754;SDS011;2902;42.130;24.732;2024-02-23T14:32:27;10.57;;;9.17;;
5754;SDS011;2902;42.130;24.732;2024-02-23T14:34:54;10.83;;;8.67;;
5754;SDS011;2902;42.130;24.732;2024-02-23T14:37:22;9.10;;;8.40;;
5754;SDS011;2902;42.130;24.732;2024-02-23T14:39:49;8.53;;;7.93;;